createdAt,value
2023-01-09T00:02:27.402Z,4.80
2023-01-09T00:04:57.303Z,3.83
2023-01-09T00:07:25.549Z,5.13
2023-01-09T00:09:53.560Z,3.03
2023-01-09T00:12:21.767Z,5.63
2023-01-09T00:14:50.090Z,3.60
2023-01-09T00:17:18.389Z,4.20
2023-01-09T00:19:46.510Z,5.20
2023-01-09T00:22:16.348Z,5.72
2023-01-09T00:24:44.560Z,5.50
2023-01-09T00:27:14.689Z,5.53
2023-01-09T00:29:45.129Z,5.15
2023-01-09T00:32:13.440Z,5.57
2023-01-09T00:34:43.650Z,4.82
2023-01-09T00:37:14.762Z,5.65
2023-01-09T00:39:44.612Z,5.35
2023-01-09T00:42:16.317Z,3.83
2023-01-09T00:44:47.156Z,2.78
2023-01-09T00:47:18.892Z,3.42
2023-01-09T00:49:48.254Z,4.07
2023-01-09T00:52:17.072Z,4.82
2023-01-09T00:54:47.401Z,4.30
2023-01-09T00:57:15.851Z,4.85
2023-01-09T00:59:44.365Z,3.35
2023-01-09T01:02:12.586Z,5.63
2023-01-09T01:04:59.532Z,8.13
2023-01-09T01:07:39.393Z,9.95
2023-01-09T01:10:11.529Z,7.15
2023-01-09T01:12:40.215Z,9.63
2023-01-09T01:15:09.561Z,7.97
2023-01-09T01:17:38.999Z,6.45
2023-01-09T01:20:10.975Z,6.40
2023-01-09T01:22:39.186Z,10.15
2023-01-09T01:25:09.661Z,9.18
2023-01-09T01:27:38.099Z,9.90
2023-01-09T01:30:07.800Z,12.70
2023-01-09T01:32:35.905Z,10.88
2023-01-09T01:35:04.281Z,13.63
2023-01-09T01:37:33.835Z,14.52
2023-01-09T01:40:01.965Z,13.10
2023-01-09T01:42:31.502Z,22.85
2023-01-09T01:45:02.826Z,16.75
2023-01-09T01:47:38.311Z,14.10
2023-01-09T01:50:11.827Z,14.02
2023-01-09T01:52:40.213Z,18.95
2023-01-09T01:55:10.418Z,15.18
2023-01-09T01:57:43.218Z,18.17
2023-01-09T02:00:12.769Z,19.40
2023-01-09T02:02:40.766Z,15.40
2023-01-09T02:05:09.408Z,19.17
2023-01-09T02:07:37.505Z,19.45
2023-01-09T02:10:06.294Z,19.85
2023-01-09T02:12:34.201Z,22.73
2023-01-09T02:15:08.219Z,26.13
2023-01-09T02:18:05.729Z,25.77
2023-01-09T02:20:52.758Z,22.58
2023-01-09T02:23:47.856Z,25.13
2023-01-09T02:26:44.079Z,26.67
2023-01-09T02:29:40.049Z,23.65
2023-01-09T02:32:19.865Z,23.65
2023-01-09T02:34:57.213Z,31.90
2023-01-09T02:37:32.018Z,23.58
2023-01-09T02:40:07.353Z,22.08
2023-01-09T02:42:37.412Z,26.15
2023-01-09T02:45:06.278Z,21.95
2023-01-09T02:47:41.656Z,24.83
2023-01-09T02:50:14.217Z,18.42
2023-01-09T02:53:08.795Z,23.10
2023-01-09T02:55:52.083Z,20.90
2023-01-09T02:58:34.103Z,27.65
2023-01-09T03:01:15.404Z,23.50
2023-01-09T03:03:50.394Z,25.60
2023-01-09T03:06:24.924Z,20.45
2023-01-09T03:08:57.678Z,22.40
2023-01-09T03:11:29.353Z,21.67
2023-01-09T03:14:03.884Z,21.83
2023-01-09T03:16:36.099Z,21.35
2023-01-09T03:19:08.688Z,18.23
2023-01-09T03:21:37.915Z,19.98
2023-01-09T03:24:06.433Z,19.58
2023-01-09T03:26:34.774Z,17.52
2023-01-09T03:29:02.694Z,16.08
2023-01-09T03:31:30.922Z,20.60
2023-01-09T03:33:59.000Z,20.08
2023-01-09T03:36:29.113Z,16.90
2023-01-09T03:38:57.255Z,26.92
2023-01-09T03:41:25.250Z,22.98
2023-01-09T03:43:53.307Z,25.08
2023-01-09T03:46:21.284Z,15.25
2023-01-09T03:48:49.497Z,19.15
2023-01-09T03:51:17.505Z,18.70
2023-01-09T03:53:47.175Z,26.45
2023-01-09T03:56:15.675Z,16.88
2023-01-09T03:58:43.705Z,16.52
2023-01-09T04:01:14.647Z,14.85
2023-01-09T04:03:42.860Z,19.05
2023-01-09T04:06:10.801Z,17.25
2023-01-09T04:08:38.956Z,17.17
2023-01-09T04:11:08.884Z,17.63
2023-01-09T04:13:36.955Z,21.27
2023-01-09T04:16:05.597Z,21.27
2023-01-09T04:18:33.665Z,20.95
2023-01-09T04:21:01.766Z,17.08
2023-01-09T04:23:29.734Z,19.40
2023-01-09T04:25:57.785Z,11.63
2023-01-09T04:28:27.453Z,16.55
2023-01-09T04:30:55.502Z,16.30
2023-01-09T04:33:23.455Z,13.13
2023-01-09T04:35:51.551Z,16.95
2023-01-09T04:38:20.225Z,16.23
2023-01-09T04:40:49.112Z,21.08
2023-01-09T04:43:17.080Z,20.80
2023-01-09T04:45:46.778Z,22.75
2023-01-09T04:48:15.109Z,17.90
2023-01-09T04:50:43.488Z,22.00
2023-01-09T04:53:11.614Z,23.83
2023-01-09T04:55:41.541Z,24.75
2023-01-09T04:58:09.727Z,20.45
2023-01-09T05:00:37.721Z,17.13
2023-01-09T05:03:07.220Z,24.67
2023-01-09T05:05:35.145Z,17.40
2023-01-09T05:08:03.175Z,16.20
2023-01-09T05:10:31.065Z,17.48
2023-01-09T05:12:59.155Z,17.95
2023-01-09T05:15:28.585Z,18.90
2023-01-09T05:17:56.668Z,15.68
2023-01-09T05:20:26.026Z,19.98
2023-01-09T05:22:54.077Z,17.83
2023-01-09T05:25:22.080Z,14.13
2023-01-09T05:27:50.077Z,22.10
2023-01-09T05:30:18.736Z,22.42
2023-01-09T05:32:46.765Z,23.42
2023-01-09T05:35:14.719Z,23.23
2023-01-09T05:37:44.176Z,14.52
2023-01-09T05:40:13.469Z,19.50
2023-01-09T05:42:42.695Z,18.17
2023-01-09T05:45:11.738Z,20.73
2023-01-09T05:47:39.947Z,20.77
2023-01-09T05:50:08.736Z,24.30
2023-01-09T05:52:36.669Z,15.73
2023-01-09T05:55:07.456Z,12.88
2023-01-09T05:57:35.617Z,19.17
2023-01-09T06:00:04.144Z,14.43
2023-01-09T06:02:34.777Z,13.40
2023-01-09T06:05:03.044Z,17.67
2023-01-09T06:07:31.046Z,18.17
2023-01-09T06:09:59.111Z,14.52
2023-01-09T06:12:28.579Z,17.00
2023-01-09T06:14:56.621Z,19.38
2023-01-09T06:17:24.645Z,9.90
2023-01-09T06:19:52.635Z,10.23
2023-01-09T06:22:20.679Z,7.90
2023-01-09T06:24:49.015Z,12.13
2023-01-09T06:27:17.013Z,15.35
2023-01-09T06:29:46.574Z,8.43
2023-01-09T06:32:14.773Z,14.82
2023-01-09T06:34:42.655Z,9.57
2023-01-09T06:37:10.702Z,11.25
2023-01-09T06:39:38.765Z,13.05
2023-01-09T06:42:07.032Z,11.90
2023-01-09T06:44:37.029Z,19.52
2023-01-09T06:47:06.620Z,13.27
2023-01-09T06:49:34.653Z,16.17
2023-01-09T06:52:05.834Z,15.82
2023-01-09T06:54:33.800Z,13.60
2023-01-09T06:57:01.860Z,9.95
2023-01-09T06:59:29.695Z,12.90
2023-01-09T07:01:57.765Z,12.20
2023-01-09T07:04:27.129Z,13.15
2023-01-09T07:06:55.152Z,8.10
2023-01-09T07:09:22.990Z,7.75
2023-01-09T07:11:50.897Z,9.65
2023-01-09T07:14:18.861Z,9.68
2023-01-09T07:16:46.905Z,10.95
2023-01-09T07:19:14.757Z,7.28
2023-01-09T07:21:44.119Z,11.50
2023-01-09T07:24:11.852Z,14.07
2023-01-09T07:26:40.159Z,12.93
2023-01-09T07:29:08.640Z,6.15
2023-01-09T07:31:36.575Z,8.73
2023-01-09T07:34:04.489Z,10.07
2023-01-09T07:36:32.510Z,12.50
2023-01-09T07:39:01.849Z,11.93
2023-01-09T07:41:29.820Z,11.52
2023-01-09T07:43:58.059Z,13.18
2023-01-09T07:46:26.104Z,15.15
2023-01-09T07:48:54.940Z,13.38
2023-01-09T07:51:22.731Z,10.75
2023-01-09T07:53:50.538Z,11.38
2023-01-09T07:56:19.884Z,11.00
2023-01-09T07:58:47.883Z,10.00
2023-01-09T08:01:16.119Z,19.40
2023-01-09T08:03:44.071Z,16.90
2023-01-09T08:06:12.030Z,17.05
2023-01-09T08:08:39.965Z,16.58
2023-01-09T08:11:07.838Z,8.13
2023-01-09T08:13:37.152Z,13.55
2023-01-09T08:16:05.803Z,16.23
2023-01-09T08:18:33.728Z,14.57
2023-01-09T08:21:01.508Z,12.50
2023-01-09T08:23:29.514Z,13.52
2023-01-09T08:25:57.361Z,15.13
2023-01-09T08:28:25.150Z,13.75
2023-01-09T08:30:54.434Z,15.52
2023-01-09T08:33:22.491Z,12.73
2023-01-09T08:35:50.356Z,12.10
2023-01-09T08:38:18.263Z,10.50
2023-01-09T08:40:47.884Z,16.27
2023-01-09T08:43:34.309Z,12.65
2023-01-09T08:46:22.170Z,15.27
2023-01-09T08:48:50.131Z,17.25
2023-01-09T08:51:17.989Z,19.10
2023-01-09T08:53:45.821Z,9.60
2023-01-09T08:56:13.680Z,13.27
2023-01-09T08:58:41.530Z,9.82
2023-01-09T09:01:11.110Z,18.95
2023-01-09T09:03:39.228Z,8.27
2023-01-09T09:06:07.621Z,16.75
2023-01-09T09:08:35.652Z,12.18
2023-01-09T09:11:03.531Z,12.27
2023-01-09T09:13:31.360Z,11.43
2023-01-09T09:15:59.175Z,11.90
2023-01-09T09:18:28.572Z,8.23
2023-01-09T09:20:56.469Z,8.52
2023-01-09T09:23:24.454Z,14.80
2023-01-09T09:25:52.262Z,11.60
2023-01-09T09:28:20.377Z,10.40
2023-01-09T09:30:48.123Z,9.35
2023-01-09T09:33:16.041Z,9.18
2023-01-09T09:35:45.654Z,9.80
2023-01-09T09:38:13.864Z,7.93
2023-01-09T09:40:54.377Z,14.43
2023-01-09T09:44:02.593Z,11.85
2023-01-09T09:46:40.725Z,12.38
2023-01-09T09:49:15.020Z,10.15
2023-01-09T09:51:57.515Z,7.75
2023-01-09T09:54:33.210Z,10.68
2023-01-09T09:57:04.532Z,6.20
2023-01-09T09:59:35.152Z,10.82
2023-01-09T10:02:12.288Z,13.80
2023-01-09T10:04:46.258Z,9.52
2023-01-09T10:07:22.248Z,11.82
2023-01-09T10:09:54.494Z,9.55
2023-01-09T10:12:28.967Z,13.23
2023-01-09T10:14:59.133Z,11.05
2023-01-09T10:17:52.036Z,12.85
2023-01-09T10:20:49.653Z,8.57
2023-01-09T10:26:00.297Z,9.45
2023-01-09T10:28:47.492Z,9.40
2023-01-09T10:31:28.907Z,8.95
2023-01-09T10:34:08.327Z,10.05
2023-01-09T10:36:55.167Z,6.55
2023-01-09T10:39:27.156Z,9.85
2023-01-09T10:42:01.141Z,10.90
2023-01-09T10:44:36.494Z,7.65
2023-01-09T10:47:11.657Z,12.25
2023-01-09T10:49:40.934Z,9.55
2023-01-09T10:52:17.124Z,10.20
2023-01-09T10:54:55.423Z,12.43
2023-01-09T10:57:42.061Z,8.57
2023-01-09T11:00:18.100Z,13.57
2023-01-09T11:02:46.722Z,12.32
2023-01-09T11:05:18.930Z,7.25
2023-01-09T11:07:51.721Z,7.18
2023-01-09T11:10:22.906Z,10.15
2023-01-09T11:12:51.053Z,9.15
2023-01-09T11:15:31.847Z,11.43
2023-01-09T11:18:21.973Z,11.93
2023-01-09T11:20:50.079Z,10.73
2023-01-09T11:23:26.973Z,12.13
2023-01-09T11:25:58.241Z,12.43
2023-01-09T11:28:26.802Z,14.40
2023-01-09T11:30:57.943Z,12.52
2023-01-09T11:33:28.075Z,14.68
2023-01-09T11:36:03.191Z,13.32
2023-01-09T11:38:32.435Z,9.85
2023-01-09T11:41:04.549Z,13.07
2023-01-09T11:43:35.762Z,15.88
2023-01-09T11:46:06.733Z,12.13
2023-01-09T11:48:40.794Z,13.32
2023-01-09T11:51:20.322Z,14.93
2023-01-09T11:54:26.627Z,15.55
2023-01-09T11:56:56.603Z,9.07
2023-01-09T11:59:27.585Z,17.10
2023-01-09T12:02:21.545Z,12.38
2023-01-09T12:04:53.513Z,14.23
2023-01-09T12:07:50.343Z,14.27
2023-01-09T12:10:45.164Z,10.13
2023-01-09T12:13:30.477Z,15.40
2023-01-09T12:16:07.397Z,12.27
2023-01-09T12:18:50.430Z,11.68
2023-01-09T12:21:31.005Z,12.55
2023-01-09T12:24:31.861Z,12.65
2023-01-09T12:27:17.292Z,13.23
2023-01-09T12:30:15.584Z,14.85
2023-01-09T12:32:56.334Z,14.52
2023-01-09T12:35:33.997Z,16.58
2023-01-09T12:38:26.061Z,18.52
2023-01-09T12:41:25.958Z,11.10
2023-01-09T12:44:07.556Z,13.75
2023-01-09T12:46:48.108Z,10.65
2023-01-09T12:49:29.530Z,12.38
2023-01-09T12:52:04.359Z,13.82
2023-01-09T12:54:37.739Z,11.50
2023-01-09T12:57:13.698Z,14.32
2023-01-09T12:59:47.090Z,13.63
2023-01-09T13:02:25.615Z,15.75
2023-01-09T13:04:58.351Z,12.20
2023-01-09T13:07:30.979Z,15.82
2023-01-09T13:10:07.000Z,12.60
2023-01-09T13:12:39.374Z,13.48
2023-01-09T13:15:23.250Z,21.10
2023-01-09T13:17:56.355Z,12.68
2023-01-09T13:20:32.665Z,14.43
2023-01-09T13:23:02.115Z,8.82
2023-01-09T13:25:42.059Z,11.43
2023-01-09T13:28:16.930Z,12.55
2023-01-09T13:31:06.343Z,10.57
2023-01-09T13:33:38.080Z,14.32
2023-01-09T13:36:07.057Z,8.20
2023-01-09T13:38:38.410Z,6.93
2023-01-09T13:41:30.954Z,7.40
2023-01-09T13:44:01.584Z,5.55
2023-01-09T13:46:37.288Z,9.07
2023-01-09T13:49:08.522Z,9.83
2023-01-09T13:51:52.671Z,6.80
2023-01-09T13:54:55.450Z,5.32
2023-01-09T13:57:28.952Z,7.20
2023-01-09T14:00:00.124Z,6.57
2023-01-09T14:03:07.391Z,6.40
2023-01-09T14:06:06.179Z,5.07
2023-01-09T14:08:34.938Z,5.55
2023-01-09T14:11:04.924Z,3.17
2023-01-09T14:13:38.468Z,8.52
2023-01-09T14:16:12.160Z,5.05
2023-01-09T14:18:48.545Z,6.13
2023-01-09T14:21:19.603Z,3.30
2023-01-09T14:24:03.553Z,6.45
2023-01-09T14:26:45.581Z,5.38
2023-01-09T14:29:39.908Z,5.07
2023-01-09T14:32:53.806Z,11.18
2023-01-09T14:35:32.857Z,7.55
2023-01-09T14:38:22.241Z,7.00
2023-01-09T14:40:56.297Z,6.88
2023-01-09T14:43:41.837Z,6.15
2023-01-09T14:46:13.749Z,6.32
2023-01-09T14:48:55.911Z,7.07
2023-01-09T14:51:26.315Z,6.70
2023-01-09T14:53:56.442Z,5.70
2023-01-09T14:56:29.362Z,3.40
2023-01-09T14:59:12.085Z,6.88
2023-01-09T15:01:43.613Z,4.28
2023-01-09T15:04:26.445Z,4.88
2023-01-09T15:06:54.527Z,7.93
2023-01-09T15:09:27.190Z,4.90
2023-01-09T15:11:58.442Z,5.07
2023-01-09T15:14:31.551Z,7.85
2023-01-09T15:17:00.453Z,8.60
2023-01-09T15:19:29.591Z,7.95
2023-01-09T15:21:59.582Z,7.22
2023-01-09T15:24:30.765Z,8.52
2023-01-09T15:27:01.525Z,10.20
2023-01-09T15:29:30.141Z,7.70
2023-01-09T15:32:03.794Z,11.18
2023-01-09T15:34:33.220Z,4.43
2023-01-09T15:37:03.260Z,5.75
2023-01-09T15:39:36.996Z,5.15
2023-01-09T15:42:24.380Z,7.07
2023-01-09T15:44:54.010Z,5.60
2023-01-09T15:47:28.172Z,6.40
2023-01-09T15:49:57.161Z,7.03
2023-01-09T15:52:25.908Z,9.48
2023-01-09T15:54:55.207Z,6.18
2023-01-09T15:57:33.301Z,7.80
2023-01-09T16:00:31.041Z,12.45
2023-01-09T16:05:43.051Z,7.95
2023-01-09T16:08:29.437Z,7.60
2023-01-09T16:11:02.737Z,6.15
2023-01-09T16:13:33.221Z,7.57
2023-01-09T16:16:03.070Z,6.32
2023-01-09T16:18:33.897Z,5.28
2023-01-09T16:21:20.081Z,6.70
2023-01-09T16:23:53.571Z,5.27
2023-01-09T16:26:25.496Z,5.00
2023-01-09T16:28:54.161Z,9.13
2023-01-09T16:31:25.725Z,4.72
2023-01-09T16:34:04.602Z,10.13
2023-01-09T16:36:35.286Z,6.93
2023-01-09T16:39:04.308Z,7.15
2023-01-09T16:41:52.153Z,4.80
2023-01-09T16:44:20.158Z,3.38
2023-01-09T16:46:48.074Z,6.65
2023-01-09T16:49:19.255Z,7.28
2023-01-09T16:51:47.735Z,8.30
2023-01-09T16:54:16.068Z,4.45
2023-01-09T16:56:48.720Z,6.45
2023-01-09T16:59:24.799Z,8.20
2023-01-09T17:01:54.598Z,10.98
2023-01-09T17:04:26.500Z,11.82
2023-01-09T17:06:54.424Z,5.25
2023-01-09T17:09:27.458Z,9.60
2023-01-09T17:11:56.991Z,10.80
2023-01-09T17:14:25.093Z,14.65
2023-01-09T17:16:53.052Z,12.45
2023-01-09T17:19:23.717Z,8.65
2023-01-09T17:21:51.642Z,9.68
2023-01-09T17:24:38.179Z,8.95
2023-01-09T17:27:28.878Z,6.97
2023-01-09T17:29:56.810Z,7.00
2023-01-09T17:32:24.818Z,6.60
2023-01-09T17:34:52.881Z,8.02
2023-01-09T17:37:21.266Z,3.63
2023-01-09T17:39:49.199Z,6.50
2023-01-09T17:42:18.374Z,6.05
2023-01-09T17:44:46.949Z,7.07
2023-01-09T17:47:19.372Z,4.75
2023-01-09T17:50:04.342Z,7.85
2023-01-09T17:52:33.287Z,5.38
2023-01-09T17:55:05.509Z,6.30
2023-01-09T17:57:35.307Z,4.88
2023-01-09T18:00:06.493Z,5.18
2023-01-09T18:02:34.471Z,6.60
2023-01-09T18:05:02.393Z,10.13
2023-01-09T18:07:30.379Z,9.90
2023-01-09T18:09:58.283Z,6.05
2023-01-09T18:12:26.074Z,4.82
2023-01-09T18:14:55.439Z,3.78
2023-01-09T18:17:23.476Z,6.45
2023-01-09T18:19:51.464Z,5.20
2023-01-09T18:22:19.454Z,4.75
2023-01-09T18:24:47.475Z,6.22
2023-01-09T18:27:15.555Z,4.97
2023-01-09T18:29:43.634Z,6.28
2023-01-09T18:32:13.185Z,8.25
2023-01-09T18:34:44.266Z,8.73
2023-01-09T18:37:12.431Z,6.15
2023-01-09T18:39:40.436Z,9.90
2023-01-09T18:42:14.869Z,8.10
2023-01-09T18:44:42.861Z,9.85
2023-01-09T18:47:12.767Z,7.70
2023-01-09T18:49:41.204Z,11.02
2023-01-09T18:52:08.982Z,5.57
2023-01-09T18:54:38.391Z,13.55
2023-01-09T18:57:06.263Z,5.65
2023-01-09T18:59:34.704Z,6.43
2023-01-09T19:02:02.687Z,6.55
2023-01-09T19:04:32.210Z,4.70
2023-01-09T19:07:00.159Z,5.90
2023-01-09T19:09:28.126Z,7.22
2023-01-09T19:11:55.880Z,8.20
2023-01-09T19:14:23.804Z,6.30
2023-01-09T19:16:51.632Z,6.63
2023-01-09T19:19:19.841Z,6.13
2023-01-09T19:21:49.139Z,10.75
2023-01-09T19:24:19.143Z,6.43
2023-01-09T19:26:49.027Z,9.18
2023-01-09T19:29:17.863Z,7.40
2023-01-09T19:31:46.973Z,11.98
2023-01-09T19:34:16.273Z,19.25
2023-01-09T19:36:44.898Z,11.65
2023-01-09T19:39:15.185Z,12.90
2023-01-09T19:41:43.385Z,14.35
2023-01-09T19:44:11.356Z,25.05
2023-01-09T19:46:40.017Z,18.52
2023-01-09T19:49:09.080Z,18.60
2023-01-09T19:51:37.054Z,17.13
2023-01-09T19:54:08.393Z,16.67
2023-01-09T19:56:40.990Z,12.98
2023-01-09T19:59:09.973Z,18.40
2023-01-09T20:01:57.727Z,12.98
2023-01-09T20:04:27.862Z,10.85
2023-01-09T20:06:56.380Z,16.10
2023-01-09T20:09:27.756Z,16.33
2023-01-09T20:11:58.110Z,24.83
2023-01-09T20:14:26.617Z,22.02
2023-01-09T20:17:00.129Z,21.25
2023-01-09T20:19:30.293Z,23.58
2023-01-09T20:21:58.407Z,32.95
2023-01-09T20:24:26.563Z,20.95
2023-01-09T20:26:54.801Z,21.15
2023-01-09T20:29:25.006Z,15.38
2023-01-09T20:31:53.157Z,19.25
2023-01-09T20:34:21.295Z,17.45
2023-01-09T20:36:49.450Z,12.25
2023-01-09T20:39:18.643Z,11.10
2023-01-09T20:41:56.355Z,14.07
2023-01-09T20:44:26.190Z,12.88
2023-01-09T20:46:54.145Z,18.08
2023-01-09T20:49:22.991Z,20.23
2023-01-09T20:51:52.233Z,18.55
2023-01-09T20:54:24.479Z,19.45
2023-01-09T20:56:52.568Z,21.60
2023-01-09T20:59:22.195Z,21.20
2023-01-09T21:01:52.241Z,21.33
2023-01-09T21:04:20.973Z,19.85
2023-01-09T21:06:50.382Z,17.60
2023-01-09T21:09:20.581Z,17.42
2023-01-09T21:11:48.546Z,18.50
2023-01-09T21:14:16.494Z,18.75
2023-01-09T21:16:53.741Z,22.52
2023-01-09T21:19:24.362Z,21.15
2023-01-09T21:21:53.540Z,18.58
2023-01-09T21:24:22.154Z,20.00
2023-01-09T21:26:50.099Z,25.17
2023-01-09T21:29:18.272Z,23.42
2023-01-09T21:31:47.514Z,20.90
2023-01-09T21:34:17.704Z,20.90
2023-01-09T21:36:49.018Z,14.10
2023-01-09T21:39:18.780Z,14.85
2023-01-09T21:42:05.681Z,11.63
2023-01-09T21:44:52.017Z,15.10
2023-01-09T21:47:20.313Z,12.07
2023-01-09T21:49:48.632Z,19.08
2023-01-09T21:52:22.264Z,23.10
2023-01-09T21:54:50.185Z,19.30
2023-01-09T21:57:18.469Z,20.50
2023-01-09T21:59:46.445Z,18.15
2023-01-09T22:02:16.394Z,17.27
2023-01-09T22:04:49.106Z,16.77
2023-01-09T22:07:18.829Z,16.33
2023-01-09T22:09:46.896Z,20.40
2023-01-09T22:12:15.330Z,20.80
2023-01-09T22:14:43.292Z,18.67
2023-01-09T22:17:11.226Z,17.25
2023-01-09T22:19:39.146Z,12.77
2023-01-09T22:22:08.752Z,12.23
2023-01-09T22:24:38.184Z,12.40
2023-01-09T22:27:06.295Z,13.02
2023-01-09T22:29:34.342Z,11.88
2023-01-09T22:32:02.552Z,8.25
2023-01-09T22:34:31.185Z,16.40
2023-01-09T22:36:59.718Z,12.73
2023-01-09T22:39:27.513Z,14.15
2023-01-09T22:41:56.701Z,13.98
2023-01-09T22:44:24.386Z,14.10
2023-01-09T22:46:52.364Z,11.57
2023-01-09T22:49:20.413Z,12.00
2023-01-09T22:51:48.570Z,12.70
2023-01-09T22:54:16.700Z,13.07
2023-01-09T22:56:44.603Z,11.93
2023-01-09T22:59:13.849Z,12.05
2023-01-09T23:01:41.682Z,13.05
2023-01-09T23:04:12.639Z,10.27
2023-01-09T23:06:40.723Z,12.52
2023-01-09T23:09:08.491Z,10.73
2023-01-09T23:11:55.382Z,9.15
2023-01-09T23:14:24.767Z,9.25
2023-01-09T23:16:52.714Z,13.75
2023-01-09T23:19:20.814Z,9.85
2023-01-09T23:21:49.326Z,9.38
2023-01-09T23:24:18.866Z,8.98
2023-01-09T23:26:47.973Z,11.70
2023-01-09T23:29:15.927Z,15.65
2023-01-09T23:31:45.632Z,14.43
2023-01-09T23:34:16.395Z,15.38
2023-01-09T23:36:44.785Z,13.73
2023-01-09T23:39:12.661Z,17.42
2023-01-09T23:41:59.300Z,13.95
2023-01-09T23:44:27.601Z,11.90
2023-01-09T23:46:56.938Z,10.20
2023-01-09T23:49:24.747Z,11.85
2023-01-09T23:51:52.415Z,9.65
2023-01-09T23:54:20.329Z,9.90
2023-01-09T23:56:48.039Z,10.93
2023-01-09T23:59:17.732Z,11.10
